sensor_id;sensor_type;location;lat;lon;timestamp;temperature;humidity
52495;DHT22;38405;53.212;5.660;2022-09-13T00:00:37;17.30;99.90
52495;DHT22;38405;53.212;5.660;2022-09-13T00:03:03;17.30;99.90
52495;DHT22;38405;53.212;5.660;2022-09-13T00:05:29;17.30;99.90
52495;DHT22;38405;53.212;5.660;2022-09-13T00:07:56;17.30;99.90
52495;DHT22;38405;53.212;5.660;2022-09-13T00:10:23;17.30;99.90
52495;DHT22;38405;53.212;5.660;2022-09-13T00:12:49;17.30;99.90
52495;DHT22;38405;53.212;5.660;2022-09-13T00:15:15;17.30;99.90
52495;DHT22;38405;53.212;5.660;2022-09-13T00:17:41;17.30;99.90
52495;DHT22;38405;53.212;5.660;2022-09-13T00:20:07;17.30;99.90
52495;DHT22;38405;53.212;5.660;2022-09-13T00:22:34;17.30;99.90
52495;DHT22;38405;53.212;5.660;2022-09-13T00:24:59;17.30;99.90
52495;DHT22;38405;53.212;5.660;2022-09-13T00:27:25;17.40;99.90
52495;DHT22;38405;53.212;5.660;2022-09-13T00:29:51;17.40;99.90
52495;DHT22;38405;53.212;5.660;2022-09-13T00:32:17;17.40;99.90
52495;DHT22;38405;53.212;5.660;2022-09-13T00:34:42;17.40;99.90
52495;DHT22;38405;53.212;5.660;2022-09-13T00:37:08;17.40;99.90
52495;DHT22;38405;53.212;5.660;2022-09-13T00:39:34;17.40;99.90
52495;DHT22;38405;53.212;5.660;2022-09-13T00:42:00;17.50;99.90
52495;DHT22;38405;53.212;5.660;2022-09-13T00:47:15;17.50;99.90
52495;DHT22;38405;53.212;5.660;2022-09-13T00:49:44;17.50;99.90
52495;DHT22;38405;53.212;5.660;2022-09-13T00:52:15;17.50;99.90
52495;DHT22;38405;53.212;5.660;2022-09-13T00:54:47;17.50;99.90
52495;DHT22;38405;53.212;5.660;2022-09-13T00:57:15;17.50;99.90
52495;DHT22;38405;53.212;5.660;2022-09-13T01:00:05;17.50;99.90
52495;DHT22;38405;53.212;5.660;2022-09-13T01:02:59;17.60;99.90
52495;DHT22;38405;53.212;5.660;2022-09-13T01:05:31;17.60;99.90
52495;DHT22;38405;53.212;5.660;2022-09-13T01:07:58;17.60;99.90
52495;DHT22;38405;53.212;5.660;2022-09-13T01:10:25;17.60;99.90
52495;DHT22;38405;53.212;5.660;2022-09-13T01:13:05;17.60;99.90
52495;DHT22;38405;53.212;5.660;2022-09-13T01:15:39;17.70;99.90
52495;DHT22;38405;53.212;5.660;2022-09-13T01:18:06;17.60;99.90
52495;DHT22;38405;53.212;5.660;2022-09-13T01:21:15;17.60;99.90
52495;DHT22;38405;53.212;5.660;2022-09-13T01:27:21;17.60;99.90
52495;DHT22;38405;53.212;5.660;2022-09-13T01:30:17;17.60;99.90
52495;DHT22;38405;53.212;5.660;2022-09-13T01:35:47;17.60;99.90
52495;DHT22;38405;53.212;5.660;2022-09-13T01:38:42;17.60;99.90
52495;DHT22;38405;53.212;5.660;2022-09-13T01:44:02;17.60;99.90
52495;DHT22;38405;53.212;5.660;2022-09-13T01:51:58;17.70;99.90
52495;DHT22;38405;53.212;5.660;2022-09-13T01:54:36;17.70;99.90
52495;DHT22;38405;53.212;5.660;2022-09-13T01:57:28;17.80;99.90
52495;DHT22;38405;53.212;5.660;2022-09-13T02:05:53;17.80;99.90
52495;DHT22;38405;53.212;5.660;2022-09-13T02:08:41;17.80;99.90
52495;DHT22;38405;53.212;5.660;2022-09-13T02:11:12;17.70;99.90
52495;DHT22;38405;53.212;5.660;2022-09-13T02:13:59;17.60;99.90
52495;DHT22;38405;53.212;5.660;2022-09-13T02:16:38;17.50;99.90
52495;DHT22;38405;53.212;5.660;2022-09-13T02:20:23;17.50;99.90
52495;DHT22;38405;53.212;5.660;2022-09-13T02:22:33;17.30;99.90
52495;DHT22;38405;53.212;5.660;2022-09-13T02:25:06;17.20;99.90
52495;DHT22;38405;53.212;5.660;2022-09-13T02:27:34;17.20;99.90
52495;DHT22;38405;53.212;5.660;2022-09-13T02:30:05;17.20;99.90
52495;DHT22;38405;53.212;5.660;2022-09-13T02:32:36;17.10;99.90
52495;DHT22;38405;53.212;5.660;2022-09-13T02:35:07;17.10;99.90
52495;DHT22;38405;53.212;5.660;2022-09-13T02:37:38;17.10;99.90
52495;DHT22;38405;53.212;5.660;2022-09-13T02:40:09;17.10;99.90
52495;DHT22;38405;53.212;5.660;2022-09-13T02:42:41;17.10;99.90
52495;DHT22;38405;53.212;5.660;2022-09-13T02:45:09;17.10;99.90
52495;DHT22;38405;53.212;5.660;2022-09-13T02:47:57;17.00;99.90
52495;DHT22;38405;53.212;5.660;2022-09-13T02:53:42;17.10;99.90
52495;DHT22;38405;53.212;5.660;2022-09-13T02:56:36;17.10;99.90
52495;DHT22;38405;53.212;5.660;2022-09-13T02:59:14;17.00;99.90
52495;DHT22;38405;53.212;5.660;2022-09-13T03:01:41;17.10;99.90
52495;DHT22;38405;53.212;5.660;2022-09-13T03:04:08;17.00;99.90
52495;DHT22;38405;53.212;5.660;2022-09-13T03:06:34;17.10;99.90
52495;DHT22;38405;53.212;5.660;2022-09-13T03:09:02;17.10;99.90
52495;DHT22;38405;53.212;5.660;2022-09-13T03:14:37;17.10;99.90
52495;DHT22;38405;53.212;5.660;2022-09-13T03:17:31;17.10;99.90
52495;DHT22;38405;53.212;5.660;2022-09-13T03:26:01;17.00;99.90
52495;DHT22;38405;53.212;5.660;2022-09-13T03:31:30;17.00;99.90
52495;DHT22;38405;53.212;5.660;2022-09-13T03:34:10;17.00;99.90
52495;DHT22;38405;53.212;5.660;2022-09-13T03:37:01;17.00;99.90
52495;DHT22;38405;53.212;5.660;2022-09-13T03:39:41;17.00;99.90
52495;DHT22;38405;53.212;5.660;2022-09-13T03:42:22;17.00;99.90
52495;DHT22;38405;53.212;5.660;2022-09-13T03:44:50;17.00;99.90
52495;DHT22;38405;53.212;5.660;2022-09-13T03:47:18;16.90;99.90
52495;DHT22;38405;53.212;5.660;2022-09-13T03:49:46;16.90;99.90
52495;DHT22;38405;53.212;5.660;2022-09-13T03:52:12;16.90;99.90
52495;DHT22;38405;53.212;5.660;2022-09-13T03:54:38;17.00;99.90
52495;DHT22;38405;53.212;5.660;2022-09-13T03:57:10;16.90;99.90
52495;DHT22;38405;53.212;5.660;2022-09-13T03:59:39;16.90;99.90
52495;DHT22;38405;53.212;5.660;2022-09-13T04:02:06;17.00;99.90
52495;DHT22;38405;53.212;5.660;2022-09-13T04:04:39;16.90;99.90
52495;DHT22;38405;53.212;5.660;2022-09-13T04:07:06;16.90;99.90
52495;DHT22;38405;53.212;5.660;2022-09-13T04:09:32;16.90;99.90
52495;DHT22;38405;53.212;5.660;2022-09-13T04:11:57;16.90;99.90
52495;DHT22;38405;53.212;5.660;2022-09-13T04:14:23;16.90;99.90
52495;DHT22;38405;53.212;5.660;2022-09-13T04:16:52;16.90;99.90
52495;DHT22;38405;53.212;5.660;2022-09-13T04:19:18;16.80;99.90
52495;DHT22;38405;53.212;5.660;2022-09-13T04:21:47;16.90;99.90
52495;DHT22;38405;53.212;5.660;2022-09-13T04:24:13;16.90;99.90
52495;DHT22;38405;53.212;5.660;2022-09-13T04:26:39;16.90;99.90
52495;DHT22;38405;53.212;5.660;2022-09-13T04:29:05;16.80;99.90
52495;DHT22;38405;53.212;5.660;2022-09-13T04:31:30;16.80;99.90
52495;DHT22;38405;53.212;5.660;2022-09-13T04:33:56;16.80;99.90
52495;DHT22;38405;53.212;5.660;2022-09-13T04:36:22;16.80;99.90
52495;DHT22;38405;53.212;5.660;2022-09-13T04:38:48;16.70;99.90
52495;DHT22;38405;53.212;5.660;2022-09-13T04:41:14;16.80;99.90
52495;DHT22;38405;53.212;5.660;2022-09-13T04:43:41;16.80;99.90
52495;DHT22;38405;53.212;5.660;2022-09-13T04:46:07;16.70;99.90
52495;DHT22;38405;53.212;5.660;2022-09-13T04:48:33;16.70;99.90
52495;DHT22;38405;53.212;5.660;2022-09-13T04:51:02;16.80;99.90
52495;DHT22;38405;53.212;5.660;2022-09-13T04:53:29;16.80;99.90
52495;DHT22;38405;53.212;5.660;2022-09-13T04:56:02;16.80;99.90
52495;DHT22;38405;53.212;5.660;2022-09-13T04:58:29;16.80;99.90
52495;DHT22;38405;53.212;5.660;2022-09-13T05:01:06;16.70;99.90
52495;DHT22;38405;53.212;5.660;2022-09-13T05:03:33;16.80;99.90
52495;DHT22;38405;53.212;5.660;2022-09-13T05:06:07;16.80;99.90
52495;DHT22;38405;53.212;5.660;2022-09-13T05:08:34;16.90;99.90
52495;DHT22;38405;53.212;5.660;2022-09-13T05:11:00;16.80;99.90
52495;DHT22;38405;53.212;5.660;2022-09-13T05:13:26;16.70;99.90
52495;DHT22;38405;53.212;5.660;2022-09-13T05:15:57;16.90;99.90
52495;DHT22;38405;53.212;5.660;2022-09-13T05:18:25;16.80;99.90
52495;DHT22;38405;53.212;5.660;2022-09-13T05:20:55;16.80;99.90
52495;DHT22;38405;53.212;5.660;2022-09-13T05:23:22;16.80;99.90
52495;DHT22;38405;53.212;5.660;2022-09-13T05:25:54;16.80;99.90
52495;DHT22;38405;53.212;5.660;2022-09-13T05:28:21;16.80;99.90
52495;DHT22;38405;53.212;5.660;2022-09-13T05:31:00;16.80;99.90
52495;DHT22;38405;53.212;5.660;2022-09-13T05:33:32;16.80;99.90
52495;DHT22;38405;53.212;5.660;2022-09-13T05:35:58;16.80;99.90
52495;DHT22;38405;53.212;5.660;2022-09-13T05:38:24;16.80;99.90
52495;DHT22;38405;53.212;5.660;2022-09-13T05:40:57;16.70;99.90
52495;DHT22;38405;53.212;5.660;2022-09-13T05:43:29;16.70;99.90
52495;DHT22;38405;53.212;5.660;2022-09-13T05:46:11;16.70;99.90
52495;DHT22;38405;53.212;5.660;2022-09-13T05:48:37;16.70;99.90
52495;DHT22;38405;53.212;5.660;2022-09-13T05:51:13;16.70;99.90
52495;DHT22;38405;53.212;5.660;2022-09-13T05:53:42;16.70;99.90
52495;DHT22;38405;53.212;5.660;2022-09-13T05:56:10;16.70;99.90
52495;DHT22;38405;53.212;5.660;2022-09-13T05:58:41;16.60;99.90
52495;DHT22;38405;53.212;5.660;2022-09-13T06:01:08;16.60;99.90
52495;DHT22;38405;53.212;5.660;2022-09-13T06:03:34;16.50;99.90
52495;DHT22;38405;53.212;5.660;2022-09-13T06:06:00;16.50;99.90
52495;DHT22;38405;53.212;5.660;2022-09-13T06:08:28;16.50;99.90
52495;DHT22;38405;53.212;5.660;2022-09-13T06:11:06;16.60;99.90
52495;DHT22;38405;53.212;5.660;2022-09-13T06:13:33;16.60;99.90
52495;DHT22;38405;53.212;5.660;2022-09-13T06:16:00;16.60;99.90
52495;DHT22;38405;53.212;5.660;2022-09-13T06:18:27;16.60;99.90
52495;DHT22;38405;53.212;5.660;2022-09-13T06:21:01;16.60;99.90
52495;DHT22;38405;53.212;5.660;2022-09-13T06:23:28;16.60;99.90
52495;DHT22;38405;53.212;5.660;2022-09-13T06:26:09;16.70;99.90
52495;DHT22;38405;53.212;5.660;2022-09-13T06:28:36;16.70;99.90
52495;DHT22;38405;53.212;5.660;2022-09-13T06:31:04;16.80;99.90
52495;DHT22;38405;53.212;5.660;2022-09-13T06:33:31;16.70;99.90
52495;DHT22;38405;53.212;5.660;2022-09-13T06:36:06;16.80;99.90
52495;DHT22;38405;53.212;5.660;2022-09-13T06:38:32;16.80;99.90
52495;DHT22;38405;53.212;5.660;2022-09-13T06:40:59;16.80;99.90
52495;DHT22;38405;53.212;5.660;2022-09-13T06:43:25;16.90;99.90
52495;DHT22;38405;53.212;5.660;2022-09-13T06:45:51;16.90;99.90
52495;DHT22;38405;53.212;5.660;2022-09-13T06:48:18;17.00;99.90
52495;DHT22;38405;53.212;5.660;2022-09-13T06:50:43;17.10;99.90
52495;DHT22;38405;53.212;5.660;2022-09-13T06:53:10;17.10;99.90
52495;DHT22;38405;53.212;5.660;2022-09-13T06:55:36;17.30;99.90
52495;DHT22;38405;53.212;5.660;2022-09-13T06:58:01;17.30;99.90
52495;DHT22;38405;53.212;5.660;2022-09-13T07:00:27;17.50;99.90
52495;DHT22;38405;53.212;5.660;2022-09-13T07:02:52;17.70;99.90
52495;DHT22;38405;53.212;5.660;2022-09-13T07:05:18;18.60;99.90
52495;DHT22;38405;53.212;5.660;2022-09-13T07:07:45;19.60;99.90
52495;DHT22;38405;53.212;5.660;2022-09-13T07:10:10;20.80;99.90
52495;DHT22;38405;53.212;5.660;2022-09-13T07:12:38;21.70;99.90
52495;DHT22;38405;53.212;5.660;2022-09-13T07:15:04;22.60;99.90
52495;DHT22;38405;53.212;5.660;2022-09-13T07:17:30;23.20;99.90
52495;DHT22;38405;53.212;5.660;2022-09-13T07:19:55;23.60;99.90
52495;DHT22;38405;53.212;5.660;2022-09-13T07:22:21;23.50;99.90
52495;DHT22;38405;53.212;5.660;2022-09-13T07:24:51;23.20;99.90
52495;DHT22;38405;53.212;5.660;2022-09-13T07:27:17;22.40;99.90
52495;DHT22;38405;53.212;5.660;2022-09-13T07:29:42;21.70;99.90
52495;DHT22;38405;53.212;5.660;2022-09-13T07:32:08;22.10;99.90
52495;DHT22;38405;53.212;5.660;2022-09-13T07:34:33;22.80;99.90
52495;DHT22;38405;53.212;5.660;2022-09-13T07:37:00;23.20;99.90
52495;DHT22;38405;53.212;5.660;2022-09-13T07:39:26;23.50;99.90
52495;DHT22;38405;53.212;5.660;2022-09-13T07:41:52;23.90;99.90
52495;DHT22;38405;53.212;5.660;2022-09-13T07:44:18;24.40;99.90
52495;DHT22;38405;53.212;5.660;2022-09-13T07:46:44;24.50;99.90
52495;DHT22;38405;53.212;5.660;2022-09-13T07:49:12;25.00;99.90
52495;DHT22;38405;53.212;5.660;2022-09-13T07:51:41;25.10;99.90
52495;DHT22;38405;53.212;5.660;2022-09-13T07:54:14;25.50;99.90
52495;DHT22;38405;53.212;5.660;2022-09-13T07:56:40;25.80;99.90
52495;DHT22;38405;53.212;5.660;2022-09-13T07:59:11;26.60;99.90
52495;DHT22;38405;53.212;5.660;2022-09-13T08:01:45;27.20;99.90
52495;DHT22;38405;53.212;5.660;2022-09-13T08:04:14;28.10;99.90
52495;DHT22;38405;53.212;5.660;2022-09-13T08:06:42;28.30;99.90
52495;DHT22;38405;53.212;5.660;2022-09-13T08:09:09;27.80;99.90
52495;DHT22;38405;53.212;5.660;2022-09-13T08:11:42;28.10;99.90
52495;DHT22;38405;53.212;5.660;2022-09-13T08:14:10;28.30;99.50
52495;DHT22;38405;53.212;5.660;2022-09-13T08:16:37;28.30;99.90
52495;DHT22;38405;53.212;5.660;2022-09-13T08:19:04;28.30;99.50
52495;DHT22;38405;53.212;5.660;2022-09-13T08:21:36;28.60;99.40
52495;DHT22;38405;53.212;5.660;2022-09-13T08:24:03;28.90;98.20
52495;DHT22;38405;53.212;5.660;2022-09-13T08:26:30;28.90;98.80
52495;DHT22;38405;53.212;5.660;2022-09-13T08:28:57;28.90;98.40
52495;DHT22;38405;53.212;5.660;2022-09-13T08:31:24;28.70;98.10
52495;DHT22;38405;53.212;5.660;2022-09-13T08:33:50;29.00;97.80
52495;DHT22;38405;53.212;5.660;2022-09-13T08:36:16;28.80;97.10
52495;DHT22;38405;53.212;5.660;2022-09-13T08:38:46;28.70;97.20
52495;DHT22;38405;53.212;5.660;2022-09-13T08:46:56;29.40;95.60
52495;DHT22;38405;53.212;5.660;2022-09-13T08:49:25;29.20;97.00
52495;DHT22;38405;53.212;5.660;2022-09-13T08:51:55;29.10;95.30
52495;DHT22;38405;53.212;5.660;2022-09-13T08:54:22;28.50;97.50
52495;DHT22;38405;53.212;5.660;2022-09-13T08:57:12;28.80;97.50
52495;DHT22;38405;53.212;5.660;2022-09-13T09:03:09;28.90;96.10
52495;DHT22;38405;53.212;5.660;2022-09-13T09:05:47;27.10;95.20
52495;DHT22;38405;53.212;5.660;2022-09-13T09:08:30;25.30;97.40
52495;DHT22;38405;53.212;5.660;2022-09-13T09:11:02;24.80;99.10
52495;DHT22;38405;53.212;5.660;2022-09-13T09:13:34;24.70;99.30
52495;DHT22;38405;53.212;5.660;2022-09-13T09:16:15;24.40;98.90
52495;DHT22;38405;53.212;5.660;2022-09-13T09:18:45;24.10;99.10
52495;DHT22;38405;53.212;5.660;2022-09-13T09:21:16;23.90;99.70
52495;DHT22;38405;53.212;5.660;2022-09-13T09:23:50;23.60;99.40
52495;DHT22;38405;53.212;5.660;2022-09-13T09:26:21;23.20;98.40
52495;DHT22;38405;53.212;5.660;2022-09-13T09:36:38;23.60;99.90
52495;DHT22;38405;53.212;5.660;2022-09-13T09:39:06;23.70;99.90
52495;DHT22;38405;53.212;5.660;2022-09-13T09:41:35;23.80;99.90
52495;DHT22;38405;53.212;5.660;2022-09-13T09:44:23;24.00;99.90
52495;DHT22;38405;53.212;5.660;2022-09-13T09:47:00;24.10;98.10
52495;DHT22;38405;53.212;5.660;2022-09-13T09:58:06;25.10;98.70
52495;DHT22;38405;53.212;5.660;2022-09-13T10:00:35;24.90;99.80
52495;DHT22;38405;53.212;5.660;2022-09-13T10:03:24;24.40;99.70
52495;DHT22;38405;53.212;5.660;2022-09-13T10:05:48;23.90;99.80
52495;DHT22;38405;53.212;5.660;2022-09-13T10:08:32;23.40;99.90
52495;DHT22;38405;53.212;5.660;2022-09-13T10:10:58;22.90;98.90
52495;DHT22;38405;53.212;5.660;2022-09-13T10:13:25;22.60;99.90
52495;DHT22;38405;53.212;5.660;2022-09-13T10:15:59;22.60;99.90
52495;DHT22;38405;53.212;5.660;2022-09-13T10:18:30;23.00;99.90
52495;DHT22;38405;53.212;5.660;2022-09-13T10:23:45;24.00;99.90
52495;DHT22;38405;53.212;5.660;2022-09-13T10:26:19;24.60;99.90
52495;DHT22;38405;53.212;5.660;2022-09-13T10:31:20;25.20;99.10
52495;DHT22;38405;53.212;5.660;2022-09-13T10:33:58;25.20;97.70
52495;DHT22;38405;53.212;5.660;2022-09-13T10:36:35;25.00;97.40
52495;DHT22;38405;53.212;5.660;2022-09-13T10:39:05;24.80;96.70
52495;DHT22;38405;53.212;5.660;2022-09-13T10:41:34;24.30;97.70
52495;DHT22;38405;53.212;5.660;2022-09-13T10:44:05;23.90;97.70
52495;DHT22;38405;53.212;5.660;2022-09-13T10:46:47;23.90;98.50
52495;DHT22;38405;53.212;5.660;2022-09-13T10:49:39;24.20;98.50
52495;DHT22;38405;53.212;5.660;2022-09-13T10:54:52;23.90;98.20
52495;DHT22;38405;53.212;5.660;2022-09-13T10:57:48;23.70;99.00
52495;DHT22;38405;53.212;5.660;2022-09-13T11:17:48;23.10;98.20
52495;DHT22;38405;53.212;5.660;2022-09-13T11:23:40;23.40;99.60
52495;DHT22;38405;53.212;5.660;2022-09-13T11:26:43;23.40;97.50
52495;DHT22;38405;53.212;5.660;2022-09-13T11:29:32;23.30;98.80
52495;DHT22;38405;53.212;5.660;2022-09-13T11:40:31;23.30;99.50
52495;DHT22;38405;53.212;5.660;2022-09-13T11:43:30;23.20;97.50
52495;DHT22;38405;53.212;5.660;2022-09-13T11:46:16;23.00;97.70
52495;DHT22;38405;53.212;5.660;2022-09-13T11:48:56;23.00;98.60
52495;DHT22;38405;53.212;5.660;2022-09-13T11:57:11;22.60;98.40
52495;DHT22;38405;53.212;5.660;2022-09-13T11:59:46;22.80;98.80
52495;DHT22;38405;53.212;5.660;2022-09-13T12:02:23;22.80;98.30
52495;DHT22;38405;53.212;5.660;2022-09-13T12:04:58;22.80;98.10
52495;DHT22;38405;53.212;5.660;2022-09-13T12:07:32;22.90;98.30
52495;DHT22;38405;53.212;5.660;2022-09-13T12:10:06;22.80;98.80
52495;DHT22;38405;53.212;5.660;2022-09-13T12:12:39;22.80;98.60
52495;DHT22;38405;53.212;5.660;2022-09-13T12:15:36;22.60;98.70
52495;DHT22;38405;53.212;5.660;2022-09-13T12:20:40;22.30;98.70
52495;DHT22;38405;53.212;5.660;2022-09-13T12:23:15;22.20;98.50
52495;DHT22;38405;53.212;5.660;2022-09-13T12:26:23;22.00;98.70
52495;DHT22;38405;53.212;5.660;2022-09-13T12:29:00;21.90;97.90
52495;DHT22;38405;53.212;5.660;2022-09-13T12:31:29;21.80;99.20
52495;DHT22;38405;53.212;5.660;2022-09-13T12:33:56;21.60;99.10
52495;DHT22;38405;53.212;5.660;2022-09-13T12:36:34;21.40;98.90
52495;DHT22;38405;53.212;5.660;2022-09-13T12:39:18;21.40;99.40
52495;DHT22;38405;53.212;5.660;2022-09-13T12:42:41;21.20;99.20
52495;DHT22;38405;53.212;5.660;2022-09-13T12:53:11;21.10;99.40
52495;DHT22;38405;53.212;5.660;2022-09-13T12:56:00;21.10;99.10
52495;DHT22;38405;53.212;5.660;2022-09-13T12:58:40;21.10;99.50
52495;DHT22;38405;53.212;5.660;2022-09-13T13:03:36;21.30;99.60
52495;DHT22;38405;53.212;5.660;2022-09-13T13:06:18;21.30;99.30
52495;DHT22;38405;53.212;5.660;2022-09-13T13:08:53;21.30;99.40
52495;DHT22;38405;53.212;5.660;2022-09-13T13:11:23;21.20;99.30
52495;DHT22;38405;53.212;5.660;2022-09-13T13:13:58;21.10;99.30
52495;DHT22;38405;53.212;5.660;2022-09-13T13:16:31;21.00;99.30
52495;DHT22;38405;53.212;5.660;2022-09-13T13:19:00;21.00;99.40
52495;DHT22;38405;53.212;5.660;2022-09-13T13:26:47;21.00;98.90
52495;DHT22;38405;53.212;5.660;2022-09-13T13:29:19;21.00;99.30
52495;DHT22;38405;53.212;5.660;2022-09-13T13:37:00;20.90;99.70
52495;DHT22;38405;53.212;5.660;2022-09-13T13:49:43;21.00;99.10
52495;DHT22;38405;53.212;5.660;2022-09-13T13:55:02;20.80;99.70
52495;DHT22;38405;53.212;5.660;2022-09-13T13:57:30;20.80;99.90
52495;DHT22;38405;53.212;5.660;2022-09-13T14:00:18;20.80;99.90
52495;DHT22;38405;53.212;5.660;2022-09-13T14:02:52;20.60;99.60
52495;DHT22;38405;53.212;5.660;2022-09-13T14:19:18;20.20;99.40
52495;DHT22;38405;53.212;5.660;2022-09-13T14:24:43;20.10;99.30
52495;DHT22;38405;53.212;5.660;2022-09-13T14:27:33;20.10;99.90
52495;DHT22;38405;53.212;5.660;2022-09-13T14:30:14;19.90;99.70
52495;DHT22;38405;53.212;5.660;2022-09-13T14:32:44;19.70;99.90
52495;DHT22;38405;53.212;5.660;2022-09-13T14:37:48;19.70;99.90
52495;DHT22;38405;53.212;5.660;2022-09-13T14:40:18;19.70;99.90
52495;DHT22;38405;53.212;5.660;2022-09-13T14:42:47;19.80;99.90
52495;DHT22;38405;53.212;5.660;2022-09-13T14:45:13;19.80;99.90
52495;DHT22;38405;53.212;5.660;2022-09-13T14:47:56;19.90;99.90
52495;DHT22;38405;53.212;5.660;2022-09-13T14:50:35;19.90;99.90
52495;DHT22;38405;53.212;5.660;2022-09-13T14:53:18;20.00;99.90
52495;DHT22;38405;53.212;5.660;2022-09-13T14:55:58;20.00;99.90
52495;DHT22;38405;53.212;5.660;2022-09-13T14:58:28;20.10;99.90
52495;DHT22;38405;53.212;5.660;2022-09-13T15:01:04;20.00;99.90
52495;DHT22;38405;53.212;5.660;2022-09-13T15:03:31;20.00;99.70
52495;DHT22;38405;53.212;5.660;2022-09-13T15:05:59;19.90;99.90
52495;DHT22;38405;53.212;5.660;2022-09-13T15:11:04;19.90;99.90
52495;DHT22;38405;53.212;5.660;2022-09-13T15:13:30;19.90;99.90
52495;DHT22;38405;53.212;5.660;2022-09-13T15:15:56;19.80;99.90
52495;DHT22;38405;53.212;5.660;2022-09-13T15:18:30;19.80;99.90
52495;DHT22;38405;53.212;5.660;2022-09-13T15:20:58;19.70;99.90
52495;DHT22;38405;53.212;5.660;2022-09-13T15:23:38;19.70;99.90
52495;DHT22;38405;53.212;5.660;2022-09-13T15:26:08;19.80;99.90
52495;DHT22;38405;53.212;5.660;2022-09-13T15:28:55;19.90;99.90
52495;DHT22;38405;53.212;5.660;2022-09-13T15:36:46;20.40;99.90
52495;DHT22;38405;53.212;5.660;2022-09-13T15:39:15;20.30;99.90
52495;DHT22;38405;53.212;5.660;2022-09-13T15:41:52;20.20;99.90
52495;DHT22;38405;53.212;5.660;2022-09-13T15:44:18;20.20;99.90
52495;DHT22;38405;53.212;5.660;2022-09-13T15:46:47;20.10;99.90
52495;DHT22;38405;53.212;5.660;2022-09-13T15:49:16;20.10;99.90
52495;DHT22;38405;53.212;5.660;2022-09-13T15:51:43;20.00;99.90
52495;DHT22;38405;53.212;5.660;2022-09-13T15:54:13;19.90;99.90
52495;DHT22;38405;53.212;5.660;2022-09-13T15:56:42;19.90;99.90
52495;DHT22;38405;53.212;5.660;2022-09-13T15:59:16;19.70;99.90
52495;DHT22;38405;53.212;5.660;2022-09-13T16:01:43;19.70;99.90
52495;DHT22;38405;53.212;5.660;2022-09-13T16:04:10;19.70;99.90
52495;DHT22;38405;53.212;5.660;2022-09-13T16:06:36;19.60;99.90
52495;DHT22;38405;53.212;5.660;2022-09-13T16:09:19;19.50;99.90
52495;DHT22;38405;53.212;5.660;2022-09-13T16:11:47;19.40;99.90
52495;DHT22;38405;53.212;5.660;2022-09-13T16:14:13;19.20;99.90
52495;DHT22;38405;53.212;5.660;2022-09-13T16:16:39;19.10;99.90
52495;DHT22;38405;53.212;5.660;2022-09-13T16:19:05;19.10;99.90
52495;DHT22;38405;53.212;5.660;2022-09-13T16:21:30;19.00;99.90
52495;DHT22;38405;53.212;5.660;2022-09-13T16:23:56;19.00;99.90
52495;DHT22;38405;53.212;5.660;2022-09-13T16:26:22;19.00;99.90
52495;DHT22;38405;53.212;5.660;2022-09-13T16:28:48;19.00;99.90
52495;DHT22;38405;53.212;5.660;2022-09-13T16:31:13;18.80;99.90
52495;DHT22;38405;53.212;5.660;2022-09-13T16:33:41;18.80;99.90
52495;DHT22;38405;53.212;5.660;2022-09-13T16:36:10;18.70;99.90
52495;DHT22;38405;53.212;5.660;2022-09-13T16:38:36;18.60;99.90
52495;DHT22;38405;53.212;5.660;2022-09-13T16:41:04;18.50;99.90
52495;DHT22;38405;53.212;5.660;2022-09-13T16:43:30;18.50;99.90
52495;DHT22;38405;53.212;5.660;2022-09-13T16:45:57;18.50;99.90
52495;DHT22;38405;53.212;5.660;2022-09-13T16:48:23;18.40;99.90
52495;DHT22;38405;53.212;5.660;2022-09-13T16:50:49;18.30;99.90
52495;DHT22;38405;53.212;5.660;2022-09-13T16:53:15;18.20;99.90
52495;DHT22;38405;53.212;5.660;2022-09-13T16:55:40;18.10;99.90
52495;DHT22;38405;53.212;5.660;2022-09-13T16:58:07;18.00;99.90
52495;DHT22;38405;53.212;5.660;2022-09-13T17:00:33;17.90;99.90
52495;DHT22;38405;53.212;5.660;2022-09-13T17:02:59;17.80;99.90
52495;DHT22;38405;53.212;5.660;2022-09-13T17:05:24;17.60;99.90
52495;DHT22;38405;53.212;5.660;2022-09-13T17:07:51;17.50;99.90
52495;DHT22;38405;53.212;5.660;2022-09-13T17:10:17;17.50;99.90
52495;DHT22;38405;53.212;5.660;2022-09-13T17:12:43;17.40;99.90
52495;DHT22;38405;53.212;5.660;2022-09-13T17:15:09;17.40;99.90
52495;DHT22;38405;53.212;5.660;2022-09-13T17:17:35;17.20;99.90
52495;DHT22;38405;53.212;5.660;2022-09-13T17:20:05;17.20;99.90
52495;DHT22;38405;53.212;5.660;2022-09-13T17:22:35;17.10;99.90
52495;DHT22;38405;53.212;5.660;2022-09-13T17:25:01;17.00;99.90
52495;DHT22;38405;53.212;5.660;2022-09-13T17:27:27;16.90;99.90
52495;DHT22;38405;53.212;5.660;2022-09-13T17:29:52;16.90;99.90
52495;DHT22;38405;53.212;5.660;2022-09-13T17:32:18;16.80;99.90
52495;DHT22;38405;53.212;5.660;2022-09-13T17:34:45;16.70;99.90
52495;DHT22;38405;53.212;5.660;2022-09-13T17:37:10;16.70;99.90
52495;DHT22;38405;53.212;5.660;2022-09-13T17:39:36;16.60;99.90
52495;DHT22;38405;53.212;5.660;2022-09-13T17:42:02;16.60;99.90
52495;DHT22;38405;53.212;5.660;2022-09-13T17:44:28;16.50;99.90
52495;DHT22;38405;53.212;5.660;2022-09-13T17:46:53;16.50;99.90
52495;DHT22;38405;53.212;5.660;2022-09-13T17:49:19;16.50;99.90
52495;DHT22;38405;53.212;5.660;2022-09-13T17:51:45;16.50;99.90
52495;DHT22;38405;53.212;5.660;2022-09-13T17:54:11;16.50;99.90
52495;DHT22;38405;53.212;5.660;2022-09-13T17:56:41;16.50;99.90
52495;DHT22;38405;53.212;5.660;2022-09-13T17:59:11;16.50;99.90
52495;DHT22;38405;53.212;5.660;2022-09-13T18:01:40;16.50;99.90
52495;DHT22;38405;53.212;5.660;2022-09-13T18:04:08;16.50;99.90
52495;DHT22;38405;53.212;5.660;2022-09-13T18:06:34;16.40;99.90
52495;DHT22;38405;53.212;5.660;2022-09-13T18:09:00;16.30;99.90
52495;DHT22;38405;53.212;5.660;2022-09-13T18:11:26;16.30;99.90
52495;DHT22;38405;53.212;5.660;2022-09-13T18:13:52;16.20;99.90
52495;DHT22;38405;53.212;5.660;2022-09-13T18:16:20;16.20;99.90
52495;DHT22;38405;53.212;5.660;2022-09-13T18:18:47;16.10;99.90
52495;DHT22;38405;53.212;5.660;2022-09-13T18:21:13;16.10;99.90
52495;DHT22;38405;53.212;5.660;2022-09-13T18:23:41;16.10;99.90
52495;DHT22;38405;53.212;5.660;2022-09-13T18:26:09;16.10;99.90
52495;DHT22;38405;53.212;5.660;2022-09-13T18:28:35;16.00;99.90
52495;DHT22;38405;53.212;5.660;2022-09-13T18:31:03;16.00;99.90
52495;DHT22;38405;53.212;5.660;2022-09-13T18:33:34;16.00;99.90
52495;DHT22;38405;53.212;5.660;2022-09-13T18:36:08;16.00;99.90
52495;DHT22;38405;53.212;5.660;2022-09-13T18:38:36;16.00;99.90
52495;DHT22;38405;53.212;5.660;2022-09-13T18:41:05;16.00;99.90
52495;DHT22;38405;53.212;5.660;2022-09-13T18:43:32;16.00;99.90
52495;DHT22;38405;53.212;5.660;2022-09-13T18:46:00;16.00;99.90